Time;durP1;ratioP1;P1;durP2;ratioP2;P2;SDS_P1;SDS_P2;PMS_P1;PMS_P2;Temp;Humidity;BMP_temperature;BMP_pressure;BME280_temperature;BME280_humidity;BME280_pressure;Samples;Min_cycle;Max_cycle;Signal;HPM_P1;HPM_P2
2023/04/12 00:01:13;;;;;;;5.93;0.63;;;;;;;16.79;40.95;100414.38;4936477;29;20031;-64
2023/04/12 00:03:39;;;;;;;4.30;1.10;;;;;;;16.73;40.89;100402.41;4952808;29;20117;-63
2023/04/12 00:06:06;;;;;;;1.90;0.65;;;;;;;16.75;41.04;100408.47;4952508;28;20565;-65
2023/04/12 00:08:32;;;;;;;4.70;0.80;;;;;;;16.71;40.39;100396.34;4953856;28;20062;-65
2023/04/12 00:11:02;;;;;;;1.35;0.40;;;;;;;16.67;41.03;100384.19;4936409;29;20032;-64
2023/04/12 00:13:28;;;;;;;1.65;0.65;;;;;;;16.66;40.32;100366.28;4953607;28;20035;-64
2023/04/12 00:15:53;;;;;;;5.13;0.90;;;;;;;16.64;41.72;100362.91;4953595;28;20047;-64
2023/04/12 00:18:18;;;;;;;3.28;0.55;;;;;;;16.65;40.62;100359.19;4952718;29;20053;-64
2023/04/12 00:20:44;;;;;;;3.63;0.77;;;;;;;16.65;40.40;100351.06;4952300;28;20059;-64
2023/04/12 00:23:11;;;;;;;3.17;0.60;;;;;;;16.62;41.56;100354.13;4952296;28;20130;-64
2023/04/12 00:25:38;;;;;;;1.30;0.65;;;;;;;16.63;40.68;100333.34;4952189;28;20039;-64
2023/04/12 00:28:03;;;;;;;1.95;0.77;;;;;;;16.61;40.61;100330.81;4952261;28;20042;-64
2023/04/12 00:30:29;;;;;;;3.60;1.00;;;;;;;16.60;40.61;100339.97;4952424;29;20032;-64
2023/04/12 00:32:54;;;;;;;1.85;0.70;;;;;;;16.60;41.37;100331.84;4953524;28;20058;-64
2023/04/12 00:35:20;;;;;;;3.60;0.65;;;;;;;16.58;41.60;100322.22;4968076;28;20525;-65
2023/04/12 00:37:45;;;;;;;1.77;0.82;;;;;;;16.58;41.36;100306.00;4952910;28;20536;-64
2023/04/12 00:40:11;;;;;;;2.78;0.45;;;;;;;16.56;41.63;100292.66;4935931;28;20042;-64
2023/04/12 00:42:37;;;;;;;3.53;0.82;;;;;;;16.53;41.08;100278.63;4936188;28;20402;-64
2023/04/12 00:45:03;;;;;;;2.80;0.52;;;;;;;16.54;41.29;100277.63;4935893;29;20032;-64
2023/04/12 00:47:28;;;;;;;1.73;0.47;;;;;;;16.56;40.80;100276.44;4920114;29;20039;-65
2023/04/12 00:49:56;;;;;;;2.83;0.45;;;;;;;16.56;41.83;100278.28;4951713;28;20049;-65
2023/04/12 00:52:22;;;;;;;3.70;0.47;;;;;;;16.51;40.99;100265.28;4935985;29;20406;-64
2023/04/12 00:54:47;;;;;;;2.47;0.50;;;;;;;16.54;41.82;100264.97;4951724;28;20475;-64
2023/04/12 00:57:13;;;;;;;4.63;0.70;;;;;;;16.54;41.68;100259.56;4952236;29;20059;-64
2023/04/12 00:59:38;;;;;;;8.25;0.77;;;;;;;16.56;40.47;100256.66;4935131;29;20101;-64
2023/04/12 01:02:04;;;;;;;4.55;1.42;;;;;;;16.54;40.69;100246.03;4951335;28;20058;-64
2023/04/12 01:04:29;;;;;;;1.00;0.32;;;;;;;16.54;41.09;100248.75;4952800;28;20093;-64
2023/04/12 01:07:38;;;;;;;2.72;0.70;;;;;;;16.52;41.94;100228.28;4935765;28;20031;-64
2023/04/12 01:10:18;;;;;;;1.48;0.60;;;;;;;16.51;41.17;100216.63;4951396;28;20039;-64
2023/04/12 01:13:11;;;;;;;0.85;0.38;;;;;;;16.50;41.90;100209.53;4951393;28;20505;-65
2023/04/12 01:15:40;;;;;;;0.55;0.47;;;;;;;16.50;41.57;100209.53;4951895;29;20027;-64
2023/04/12 01:18:18;;;;;;;1.40;0.50;;;;;;;16.55;40.94;100217.13;4935675;29;20047;-65
2023/04/12 01:20:52;;;;;;;1.73;0.40;;;;;;;16.59;41.00;100197.66;4951369;28;20031;-64
2023/04/12 01:23:40;;;;;;;3.33;0.50;;;;;;;16.58;41.72;100184.31;4951508;28;20035;-64
2023/04/12 01:26:31;;;;;;;0.55;0.43;;;;;;;16.59;41.04;100184.13;4952119;28;20039;-65
2023/04/12 01:28:58;;;;;;;3.55;0.50;;;;;;;16.59;41.45;100175.16;4953890;28;20038;-64
2023/04/12 01:31:24;;;;;;;1.33;0.30;;;;;;;16.57;41.96;100167.25;4951640;28;20495;-65
2023/04/12 01:33:50;;;;;;;6.30;0.57;;;;;;;16.60;41.97;100166.91;4935643;28;20035;-64
2023/04/12 01:36:21;;;;;;;0.75;0.60;;;;;;;16.54;42.32;100143.28;4936200;29;20065;-64
2023/04/12 01:38:47;;;;;;;1.23;0.40;;;;;;;16.62;42.19;100148.59;4930169;28;20039;-64
2023/04/12 01:41:12;;;;;;;0.43;0.43;;;;;;;16.61;42.10;100132.59;4951929;28;20039;-64
2023/04/12 01:43:42;;;;;;;1.95;0.50;;;;;;;16.60;42.26;100133.59;4935692;29;20181;-64
2023/04/12 01:46:11;;;;;;;0.77;0.38;;;;;;;16.60;41.91;100129.03;4934270;29;20493;-64
2023/04/12 01:48:38;;;;;;;2.47;0.47;;;;;;;16.59;40.94;100121.94;4936303;29;20039;-64
2023/04/12 01:51:10;;;;;;;0.60;0.35;;;;;;;16.60;42.39;100122.78;4935451;29;20027;-64
2023/04/12 01:53:41;;;;;;;1.30;0.40;;;;;;;16.57;41.35;100107.78;4935403;29;20124;-64
2023/04/12 01:56:08;;;;;;;0.90;0.57;;;;;;;16.52;41.35;100101.22;4951656;28;20324;-64
2023/04/12 01:58:35;;;;;;;2.28;0.50;;;;;;;16.52;41.57;100098.50;4952450;28;20561;-64
2023/04/12 02:01:01;;;;;;;1.38;0.35;;;;;;;16.49;41.60;100088.91;4919469;28;20063;-64
2023/04/12 02:03:29;;;;;;;1.50;0.50;;;;;;;16.51;41.43;100084.13;4951308;29;20055;-64
2023/04/12 02:05:56;;;;;;;1.73;0.45;;;;;;;16.52;42.42;100083.13;4949995;28;20039;-64
2023/04/12 02:08:22;;;;;;;1.27;0.30;;;;;;;16.52;41.34;100064.19;4967135;28;20093;-64
2023/04/12 02:10:47;;;;;;;3.20;1.33;;;;;;;16.53;41.96;100062.31;4950833;28;20506;-65
2023/04/12 02:13:13;;;;;;;1.42;0.38;;;;;;;16.52;42.17;100052.53;4953869;28;20030;-64
2023/04/12 02:15:39;;;;;;;1.63;0.60;;;;;;;16.50;42.67;100050.00;4954733;29;20062;-64
2023/04/12 02:18:04;;;;;;;2.88;0.80;;;;;;;16.50;42.93;100041.09;4938278;29;20058;-64
2023/04/12 02:20:30;;;;;;;3.42;0.40;;;;;;;16.51;42.01;100023.81;4954151;28;20035;-64
2023/04/12 02:22:55;;;;;;;0.90;0.40;;;;;;;16.50;42.79;100022.97;4953988;28;20503;-64
2023/04/12 02:25:21;;;;;;;2.58;0.57;;;;;;;16.48;42.99;100018.78;4969927;28;20023;-64
2023/04/12 02:27:47;;;;;;;2.17;0.40;;;;;;;16.51;42.84;100010.28;4955135;28;20547;-64
2023/04/12 02:30:14;;;;;;;1.33;0.32;;;;;;;16.50;42.98;99997.81;4938471;29;20114;-64
2023/04/12 02:32:45;;;;;;;0.77;0.50;;;;;;;16.47;41.80;99993.59;4938004;29;20398;-65
2023/04/12 02:35:12;;;;;;;0.13;0.13;;;;;;;16.43;42.58;99989.63;4938772;28;20498;-64
2023/04/12 02:37:38;;;;;;;2.05;0.50;;;;;;;16.44;43.05;99972.38;4955206;28;20052;-64
2023/04/12 02:40:05;;;;;;;1.02;0.40;;;;;;;16.33;41.84;99959.34;4953774;28;20043;-64
2023/04/12 02:42:31;;;;;;;0.25;0.20;;;;;;;16.37;42.00;99965.19;4954156;29;20039;-65
2023/04/12 02:44:56;;;;;;;0.57;0.38;;;;;;;16.33;42.48;99959.34;4953638;28;20039;-64
2023/04/12 02:47:27;;;;;;;1.60;0.45;;;;;;;16.34;43.51;99955.59;4937529;29;20071;-64
2023/04/12 02:49:52;;;;;;;0.82;0.32;;;;;;;16.36;42.05;99941.91;4953694;28;20035;-64
2023/04/12 02:52:18;;;;;;;0.85;0.55;;;;;;;16.35;43.51;99937.50;4953649;28;20043;-64
2023/04/12 02:54:43;;;;;;;0.73;0.43;;;;;;;16.37;42.42;99921.94;4953493;28;20372;-64
2023/04/12 02:57:10;;;;;;;0.57;0.38;;;;;;;16.35;43.40;99908.63;4954027;28;20126;-64
2023/04/12 02:59:35;;;;;;;2.08;0.35;;;;;;;16.32;43.33;99917.09;4954894;28;20499;-64
2023/04/12 03:02:01;;;;;;;0.65;0.30;;;;;;;16.34;42.74;99906.94;4953194;28;20056;-64
2023/04/12 03:04:29;;;;;;;1.13;0.20;;;;;;;16.33;42.56;99905.28;4939046;29;20043;-64
2023/04/12 03:06:55;;;;;;;0.38;0.32;;;;;;;16.27;43.24;99889.81;4953327;28;20069;-64
2023/04/12 03:09:21;;;;;;;1.13;0.40;;;;;;;16.30;43.56;99881.34;4969780;28;20020;-64
2023/04/12 03:11:46;;;;;;;0.20;0.20;;;;;;;16.28;43.11;99875.25;4969243;28;20039;-64
2023/04/12 03:14:11;;;;;;;0.77;0.32;;;;;;;16.29;43.06;99876.94;4921287;29;20514;-64
2023/04/12 03:16:37;;;;;;;3.38;0.40;;;;;;;16.29;42.56;99868.84;4953249;28;20035;-64
2023/04/12 03:19:04;;;;;;;3.53;0.20;;;;;;;16.29;43.69;99866.97;4953421;28;20364;-64
2023/04/12 03:21:32;;;;;;;1.15;0.30;;;;;;;16.27;43.72;99854.69;4953453;29;20039;-66
2023/04/12 03:23:57;;;;;;;0.20;0.20;;;;;;;16.25;42.78;99865.66;4952852;28;20133;-64
2023/04/12 03:26:25;;;;;;;0.70;0.57;;;;;;;16.23;43.72;99853.38;4921333;29;20051;-64
2023/04/12 03:28:54;;;;;;;1.15;0.22;;;;;;;16.18;44.18;99842.31;4937216;29;20042;-64
2023/04/12 03:31:20;;;;;;;2.40;0.30;;;;;;;16.21;42.54;99836.53;4937131;29;20102;-64
2023/04/12 03:33:45;;;;;;;0.38;0.10;;;;;;;16.19;42.97;99838.59;4937226;28;20501;-64
2023/04/12 03:36:11;;;;;;;1.92;0.20;;;;;;;16.16;42.76;99828.97;4953291;29;20474;-64
2023/04/12 03:38:36;;;;;;;1.38;0.55;;;;;;;16.12;43.36;99826.84;4954267;28;20483;-64
2023/04/12 03:41:02;;;;;;;0.95;0.45;;;;;;;16.12;43.46;99822.28;4954024;28;20066;-64
2023/04/12 03:43:32;;;;;;;0.98;0.30;;;;;;;16.12;42.82;99810.63;4952752;28;20042;-64
2023/04/12 03:45:57;;;;;;;0.32;0.20;;;;;;;16.07;44.12;99813.06;4937517;28;20042;-64
2023/04/12 03:48:23;;;;;;;0.77;0.30;;;;;;;16.02;43.24;99797.44;4937178;29;20036;-64
2023/04/12 03:50:53;;;;;;;0.82;0.52;;;;;;;15.98;44.38;99801.53;4954010;28;20039;-65
2023/04/12 03:53:19;;;;;;;0.93;0.32;;;;;;;15.97;43.38;99791.75;4953533;28;20043;-64
2023/04/12 03:55:45;;;;;;;1.02;0.22;;;;;;;15.94;44.48;99796.72;4952701;28;20502;-64
2023/04/12 03:58:12;;;;;;;1.02;0.28;;;;;;;15.92;43.29;99777.13;4968574;28;20045;-64
2023/04/12 04:00:38;;;;;;;2.90;0.30;;;;;;;15.90;44.27;99773.78;4937044;29;20023;-64
2023/04/12 04:03:04;;;;;;;0.98;0.38;;;;;;;15.83;44.11;99762.91;4920431;29;20113;-63
2023/04/12 04:05:30;;;;;;;0.30;0.30;;;;;;;15.82;43.94;99760.41;4952601;28;20031;-63
2023/04/12 04:08:01;;;;;;;0.22;0.22;;;;;;;15.78;45.51;99753.69;4936888;29;20031;-64
2023/04/12 04:10:29;;;;;;;0.38;0.20;;;;;;;15.77;44.69;99754.72;4952863;28;20069;-64
2023/04/12 04:12:55;;;;;;;0.80;0.38;;;;;;;15.71;44.98;99750.94;4952799;28;20115;-65
2023/04/12 04:15:22;;;;;;;0.52;0.25;;;;;;;15.72;45.39;99748.03;4952955;28;20110;-65
2023/04/12 04:17:48;;;;;;;1.10;0.25;;;;;;;15.67;45.58;99746.91;4968855;28;20114;-66
2023/04/12 04:20:13;;;;;;;0.75;0.45;;;;;;;15.65;45.52;99744.41;4953214;28;20494;-66
2023/04/12 04:22:41;;;;;;;0.98;0.38;;;;;;;15.60;44.89;99730.66;4968388;28;20040;-66
2023/04/12 04:25:06;;;;;;;4.80;0.30;;;;;;;15.58;45.89;99738.09;4953805;28;20035;-65
2023/04/12 04:27:33;;;;;;;0.73;0.40;;;;;;;15.50;44.88;99735.50;4936890;29;20123;-66
2023/04/12 04:30:01;;;;;;;3.30;0.30;;;;;;;15.42;46.29;99724.75;4936587;29;20044;-66
2023/04/12 04:32:27;;;;;;;1.95;0.28;;;;;;;15.35;45.13;99723.84;4936892;28;20031;-67
2023/04/12 04:34:55;;;;;;;1.55;0.20;;;;;;;15.31;46.28;99730.63;4935955;29;20042;-66
2023/04/12 04:37:20;;;;;;;0.20;0.20;;;;;;;15.23;46.55;99714.53;4968920;28;20038;-67
2023/04/12 04:39:46;;;;;;;2.33;0.43;;;;;;;15.24;46.73;99720.78;4950960;28;20033;-67
2023/04/12 04:42:11;;;;;;;0.25;0.22;;;;;;;15.23;46.86;99711.84;4917978;29;20032;-67
2023/04/12 04:44:37;;;;;;;1.95;0.10;;;;;;;15.17;46.54;99707.19;4934538;28;20032;-66
2023/04/12 04:47:03;;;;;;;0.20;0.20;;;;;;;15.14;46.89;99704.84;4932971;28;20032;-67
2023/04/12 04:49:29;;;;;;;0.30;0.10;;;;;;;15.13;45.89;99695.13;4933401;28;20059;-67
2023/04/12 04:51:54;;;;;;;0.52;0.30;;;;;;;15.06;46.53;99683.38;4933544;28;20108;-67
2023/04/12 04:54:20;;;;;;;0.85;0.30;;;;;;;15.15;47.04;99690.34;4933891;29;20463;-67
2023/04/12 04:56:45;;;;;;;0.98;0.20;;;;;;;15.15;46.16;99693.91;4934103;28;20036;-67
2023/04/12 04:59:11;;;;;;;0.47;0.30;;;;;;;15.12;46.41;99693.44;4917552;28;20115;-67
2023/04/12 05:01:36;;;;;;;0.63;0.17;;;;;;;15.13;47.22;99695.13;4917230;28;20040;-67
2023/04/12 05:04:02;;;;;;;2.65;0.30;;;;;;;15.11;46.51;99686.34;4932942;28;20127;-67
2023/04/12 05:06:27;;;;;;;0.10;0.10;;;;;;;15.10;47.83;99687.38;4934969;29;20043;-67
2023/04/12 05:08:52;;;;;;;0.52;0.20;;;;;;;15.08;46.25;99682.16;4938239;28;20417;-67
2023/04/12 05:11:18;;;;;;;0.98;0.30;;;;;;;15.12;47.22;99679.94;4952520;28;20039;-67
2023/04/12 05:13:44;;;;;;;0.40;0.10;;;;;;;15.14;47.68;99675.19;4920980;28;20571;-67
2023/04/12 05:16:10;;;;;;;0.80;0.20;;;;;;;15.15;47.98;99685.81;4969006;28;20036;-68
2023/04/12 05:18:36;;;;;;;0.50;0.20;;;;;;;15.16;47.18;99679.38;4953379;29;20032;-67
2023/04/12 05:21:04;;;;;;;0.28;0.20;;;;;;;15.19;46.83;99672.75;4953622;28;20042;-67
2023/04/12 05:23:33;;;;;;;0.43;0.20;;;;;;;15.22;46.48;99680.47;4936077;29;20066;-66
2023/04/12 05:25:59;;;;;;;5.70;0.50;;;;;;;15.24;47.93;99673.06;4936171;28;20039;-67
2023/04/12 05:28:24;;;;;;;0.25;0.10;;;;;;;15.27;46.61;99663.75;4968030;28;20513;-67
2023/04/12 05:30:50;;;;;;;0.20;0.10;;;;;;;15.29;46.34;99659.84;4935908;28;20038;-67
2023/04/12 05:33:15;;;;;;;0.40;0.20;;;;;;;15.30;47.92;99668.78;4968295;28;20031;-67
2023/04/12 05:35:40;;;;;;;0.47;0.20;;;;;;;15.29;48.42;99662.53;4936082;28;20031;-68
2023/04/12 05:38:06;;;;;;;0.55;0.22;;;;;;;15.28;46.63;99660.84;4935989;28;20035;-67
2023/04/12 05:40:31;;;;;;;0.32;0.30;;;;;;;15.29;47.64;99645.50;4935926;28;20038;-67
2023/04/12 05:42:57;;;;;;;1.27;0.30;;;;;;;15.34;47.13;99643.06;4935864;28;20118;-65
2023/04/12 05:45:22;;;;;;;0.20;0.20;;;;;;;15.35;47.16;99645.59;4953647;28;20429;-69
2023/04/12 05:47:48;;;;;;;1.98;0.20;;;;;;;15.39;47.87;99652.28;4935775;28;20062;-67
2023/04/12 05:50:13;;;;;;;1.63;0.45;;;;;;;15.44;47.84;99647.13;4935894;28;20090;-68
2023/04/12 05:52:39;;;;;;;0.85;0.17;;;;;;;15.49;47.04;99652.88;4953013;28;20388;-68
2023/04/12 05:55:05;;;;;;;0.28;0.28;;;;;;;15.50;47.82;99649.13;4935814;28;20055;-67
2023/04/12 05:57:30;;;;;;;2.58;0.40;;;;;;;15.49;47.25;99642.06;4953160;28;20081;-67
2023/04/12 05:59:55;;;;;;;0.95;0.30;;;;;;;15.51;48.53;99645.41;4967272;28;20040;-68
2023/04/12 06:02:21;;;;;;;0.50;0.32;;;;;;;15.53;47.20;99647.91;4934766;28;20052;-68
2023/04/12 06:04:47;;;;;;;0.95;0.25;;;;;;;15.55;47.69;99646.69;4950952;28;20050;-69
2023/04/12 06:07:16;;;;;;;0.95;0.32;;;;;;;15.53;48.52;99643.34;4951164;28;20058;-68
2023/04/12 06:09:41;;;;;;;0.30;0.30;;;;;;;15.57;48.10;99633.00;4951196;28;20061;-68
2023/04/12 06:12:07;;;;;;;1.10;0.40;;;;;;;15.62;47.47;99620.63;4968319;28;20054;-68
2023/04/12 06:14:32;;;;;;;0.45;0.22;;;;;;;15.66;48.86;99621.88;4936040;28;20035;-68
2023/04/12 06:16:57;;;;;;;0.70;0.40;;;;;;;15.69;48.45;99621.50;4951231;28;20039;-68
2023/04/12 06:19:23;;;;;;;0.40;0.20;;;;;;;15.76;48.44;99616.19;4952721;28;20039;-68
2023/04/12 06:21:48;;;;;;;0.32;0.20;;;;;;;15.83;48.20;99605.47;4919987;28;20474;-68
2023/04/12 06:24:14;;;;;;;3.70;0.30;;;;;;;15.91;48.24;99613.44;4951811;28;20027;-68
2023/04/12 06:26:41;;;;;;;0.60;0.32;;;;;;;15.91;47.42;99605.31;4951700;28;20460;-68
2023/04/12 06:29:07;;;;;;;0.90;0.35;;;;;;;15.99;47.98;99594.38;4934856;28;20093;-68
2023/04/12 06:31:32;;;;;;;0.82;0.45;;;;;;;15.99;48.52;99597.09;4918966;28;20438;-67
2023/04/12 06:33:58;;;;;;;0.35;0.25;;;;;;;16.00;47.58;99596.03;4950467;28;20035;-67
2023/04/12 06:36:23;;;;;;;1.10;0.40;;;;;;;15.99;48.33;99599.78;4953419;28;20039;-68
2023/04/12 06:38:50;;;;;;;0.40;0.28;;;;;;;16.01;48.46;99593.16;4951514;28;20149;-67
2023/04/12 06:41:15;;;;;;;2.72;0.10;;;;;;;16.02;48.40;99599.41;4950226;28;20093;-68
2023/04/12 06:43:41;;;;;;;1.55;0.10;;;;;;;16.01;48.13;99592.31;4934368;28;20031;-67
2023/04/12 06:46:07;;;;;;;0.30;0.30;;;;;;;16.01;48.90;99586.91;4934296;28;20027;-67
2023/04/12 06:48:33;;;;;;;0.55;0.28;;;;;;;16.07;47.99;99586.16;4951923;28;20404;-67
2023/04/12 06:50:58;;;;;;;0.05;0.00;;;;;;;16.09;47.29;99594.88;4934313;28;20502;-67
2023/04/12 06:53:24;;;;;;;0.38;0.30;;;;;;;16.12;49.03;99583.69;4950250;28;20031;-67
2023/04/12 06:55:49;;;;;;;0.10;0.10;;;;;;;16.13;49.02;99579.97;4951448;28;20036;-66
2023/04/12 06:58:15;;;;;;;0.20;0.20;;;;;;;16.14;47.98;99565.41;4952004;28;20027;-66
2023/04/12 07:00:40;;;;;;;0.57;0.25;;;;;;;16.20;49.12;99570.03;4953941;28;20031;-66
2023/04/12 07:03:08;;;;;;;0.28;0.13;;;;;;;16.25;48.80;99556.75;4953503;28;20110;-66
2023/04/12 07:05:37;;;;;;;0.73;0.35;;;;;;;16.28;48.29;99550.97;4954854;28;20502;-65
2023/04/12 07:08:02;;;;;;;0.63;0.63;;;;;;;16.35;47.72;99557.28;4953297;28;20066;-66
2023/04/12 07:10:27;;;;;;;0.52;0.10;;;;;;;16.33;47.85;99559.34;4937450;28;20051;-67
2023/04/12 07:12:53;;;;;;;0.20;0.20;;;;;;;16.34;48.47;99566.41;4954600;28;20106;-67
2023/04/12 07:15:18;;;;;;;0.30;0.10;;;;;;;16.34;47.40;99563.69;4954991;28;20046;-67
2023/04/12 07:17:43;;;;;;;0.88;0.35;;;;;;;16.38;48.82;99561.44;4937345;28;20141;-66
2023/04/12 07:20:10;;;;;;;0.38;0.13;;;;;;;16.41;48.51;99564.59;4953136;28;20441;-66
2023/04/12 07:22:35;;;;;;;0.10;0.10;;;;;;;16.44;47.72;99558.78;4921339;28;20035;-65
2023/04/12 07:25:00;;;;;;;0.35;0.20;;;;;;;16.48;48.66;99561.91;4969110;28;20031;-66
2023/04/12 07:27:26;;;;;;;0.63;0.25;;;;;;;16.56;47.73;99562.63;4953538;28;20035;-65
2023/04/12 07:29:52;;;;;;;0.10;0.10;;;;;;;16.63;48.74;99555.41;4954136;28;20107;-65
2023/04/12 07:32:17;;;;;;;0.93;0.20;;;;;;;16.69;48.18;99554.63;4921478;28;20495;-66
2023/04/12 07:34:43;;;;;;;0.30;0.15;;;;;;;16.72;48.98;99570.41;4936924;28;20089;-66
2023/04/12 07:37:08;;;;;;;0.20;0.20;;;;;;;16.76;48.53;99560.03;4953105;28;20501;-65
2023/04/12 07:39:33;;;;;;;1.83;0.57;;;;;;;16.82;48.59;99554.69;4969449;28;20031;-65
2023/04/12 07:41:59;;;;;;;0.10;0.10;;;;;;;16.89;47.52;99552.81;4954054;28;20096;-65
2023/04/12 07:44:25;;;;;;;0.80;0.20;;;;;;;16.91;47.77;99562.63;4952966;28;20387;-65
2023/04/12 07:46:50;;;;;;;0.70;0.15;;;;;;;16.89;48.03;99555.53;4936803;28;20066;-65
2023/04/12 07:49:16;;;;;;;2.58;0.60;;;;;;;16.89;47.57;99547.41;4968723;28;20050;-66
2023/04/12 07:51:41;;;;;;;0.40;0.40;;;;;;;16.93;48.58;99549.72;4953183;29;20058;-65
2023/04/12 07:54:07;;;;;;;2.30;0.40;;;;;;;16.95;47.63;99550.34;4953009;28;20062;-66
2023/04/12 07:56:33;;;;;;;0.40;0.20;;;;;;;16.94;47.74;99551.41;4968703;28;20503;-65
2023/04/12 07:58:58;;;;;;;0.40;0.22;;;;;;;16.89;47.90;99547.41;4952598;28;20050;-66
2023/04/12 08:01:23;;;;;;;0.30;0.20;;;;;;;16.87;47.54;99560.31;4952572;28;20031;-67
2023/04/12 08:03:49;;;;;;;0.85;0.10;;;;;;;16.88;48.90;99553.88;4952472;28;20130;-67
2023/04/12 08:06:16;;;;;;;0.25;0.13;;;;;;;16.86;48.03;99557.81;4952999;28;20398;-67
2023/04/12 08:08:42;;;;;;;2.72;0.22;;;;;;;16.83;49.28;99556.31;4952079;28;20617;-67
2023/04/12 08:11:07;;;;;;;1.52;0.32;;;;;;;16.81;48.99;99554.84;4953117;28;20559;-67
2023/04/12 08:13:33;;;;;;;2.15;0.40;;;;;;;16.77;48.17;99562.56;4952441;28;20584;-67
2023/04/12 08:15:59;;;;;;;2.92;0.45;;;;;;;16.74;48.48;99571.06;4952357;28;20031;-67
2023/04/12 08:18:24;;;;;;;0.38;0.30;;;;;;;16.70;49.61;99564.38;4936927;28;20380;-67
2023/04/12 08:20:51;;;;;;;0.95;0.28;;;;;;;16.65;49.53;99563.31;4936326;28;20042;-68
2023/04/12 08:23:16;;;;;;;3.90;0.77;;;;;;;16.70;48.16;99572.50;4952384;28;20048;-68
2023/04/12 08:25:42;;;;;;;4.70;0.55;;;;;;;16.81;48.35;99580.03;4952659;28;20050;-67
2023/04/12 08:28:07;;;;;;;3.03;0.82;;;;;;;16.93;49.53;99593.00;4952811;28;20039;-67
2023/04/12 08:30:33;;;;;;;3.35;0.88;;;;;;;17.07;48.95;99583.91;4953474;28;20035;-68
2023/04/12 08:32:59;;;;;;;4.10;1.13;;;;;;;17.23;48.02;99600.63;4922539;28;20544;-68
2023/04/12 08:35:24;;;;;;;6.82;0.80;;;;;;;17.31;47.73;99602.31;4953528;28;20043;-67
2023/04/12 08:37:50;;;;;;;3.92;1.10;;;;;;;17.35;47.88;99598.19;4953308;28;20031;-68
2023/04/12 08:40:16;;;;;;;3.75;1.27;;;;;;;17.43;48.22;99606.13;4953695;28;20036;-68
2023/04/12 08:42:41;;;;;;;4.68;1.10;;;;;;;17.59;48.96;99600.38;4968513;28;20122;-67
2023/04/12 08:45:08;;;;;;;3.15;1.23;;;;;;;17.81;48.38;99598.34;4953068;29;20043;-67
2023/04/12 08:47:42;;;;;;;1.95;0.90;;;;;;;17.99;48.36;99599.41;4967588;28;20578;-66
2023/04/12 08:50:09;;;;;;;7.25;1.90;;;;;;;18.25;46.99;99595.06;4951712;28;20047;-66
2023/04/12 08:52:36;;;;;;;3.60;1.50;;;;;;;18.29;47.95;99604.41;4935805;29;20499;-66
2023/04/12 08:55:03;;;;;;;6.63;1.30;;;;;;;18.27;47.96;99599.22;4951820;28;20043;-66
2023/04/12 08:57:28;;;;;;;1.35;1.02;;;;;;;18.28;48.64;99595.47;4952142;28;20023;-65
2023/04/12 08:59:54;;;;;;;4.53;1.38;;;;;;;18.36;47.24;99602.56;4935543;28;20037;-65
2023/04/12 09:02:20;;;;;;;5.57;1.30;;;;;;;18.40;47.05;99604.63;4951382;28;20035;-66
2023/04/12 09:04:47;;;;;;;5.40;1.00;;;;;;;18.40;47.41;99592.94;4951566;28;20054;-65
2023/04/12 09:07:12;;;;;;;7.25;1.40;;;;;;;18.38;47.50;99595.88;4951479;28;20434;-64
2023/04/12 09:09:46;;;;;;;4.45;1.17;;;;;;;18.40;46.72;99596.50;4951946;28;20125;-65
2023/04/12 09:12:12;;;;;;;6.30;1.60;;;;;;;18.47;47.82;99593.78;4952705;28;20074;-65
2023/04/12 09:14:39;;;;;;;3.13;0.90;;;;;;;18.51;46.52;99595.03;4951436;28;20119;-65
2023/04/12 09:17:05;;;;;;;7.70;1.00;;;;;;;18.61;46.19;99590.03;4951360;28;20065;-65
2023/04/12 09:19:35;;;;;;;5.13;1.10;;;;;;;18.66;47.31;99592.94;4951237;28;20031;-65
2023/04/12 09:22:01;;;;;;;4.60;0.88;;;;;;;18.74;46.36;99573.72;4950690;28;20478;-66
2023/04/12 09:24:27;;;;;;;1.40;0.80;;;;;;;18.86;46.25;99569.31;4951644;29;20039;-65
2023/04/12 09:27:06;;;;;;;4.65;1.27;;;;;;;19.06;46.07;99575.53;4951304;28;20040;-65
2023/04/12 09:29:32;;;;;;;3.08;1.10;;;;;;;19.14;45.79;99575.28;4951362;28;20092;-65
2023/04/12 09:32:01;;;;;;;5.68;0.80;;;;;;;19.27;45.59;99585.25;4951203;28;20468;-65
2023/04/12 09:34:26;;;;;;;6.78;1.10;;;;;;;19.38;45.66;99570.13;4935132;28;20035;-65
2023/04/12 09:36:52;;;;;;;5.70;0.95;;;;;;;19.52;45.54;99577.19;4951073;28;20031;-65
2023/04/12 09:39:18;;;;;;;6.55;1.05;;;;;;;19.66;45.49;99573.34;4952662;28;20077;-65
2023/04/12 09:41:43;;;;;;;2.58;1.20;;;;;;;19.75;45.27;99567.47;4951050;28;20038;-65
2023/04/12 09:44:09;;;;;;;2.92;1.00;;;;;;;19.87;44.70;99574.91;4951107;28;20075;-65
2023/04/12 09:46:35;;;;;;;3.67;0.88;;;;;;;19.92;45.01;99567.75;4935165;28;20031;-65
2023/04/12 09:49:02;;;;;;;6.03;1.00;;;;;;;20.01;44.81;99561.00;4934943;28;20035;-64
2023/04/12 09:51:35;;;;;;;2.72;0.73;;;;;;;20.16;44.77;99558.78;4952526;28;20538;-65
2023/04/12 09:54:05;;;;;;;6.47;1.00;;;;;;;20.26;43.98;99561.88;4950815;28;20047;-64
2023/04/12 09:56:32;;;;;;;6.57;1.15;;;;;;;20.37;45.04;99564.91;4950847;28;20554;-65
2023/04/12 09:59:03;;;;;;;7.57;1.08;;;;;;;20.48;44.36;99561.44;4950827;28;20040;-65
2023/04/12 10:01:31;;;;;;;2.42;1.20;;;;;;;20.55;43.85;99570.38;4950736;28;20050;-65
2023/04/12 10:03:57;;;;;;;2.42;1.17;;;;;;;20.65;43.72;99578.88;4950732;28;20054;-65
2023/04/12 10:06:23;;;;;;;7.38;1.08;;;;;;;20.75;43.88;99569.13;4951311;28;20031;-65
2023/04/12 10:08:49;;;;;;;9.52;1.40;;;;;;;20.95;43.97;99578.97;4951970;28;20066;-66
2023/04/12 10:11:14;;;;;;;5.45;1.08;;;;;;;21.16;43.00;99573.09;4950536;28;20031;-65
2023/04/12 10:13:41;;;;;;;12.50;1.13;;;;;;;21.56;42.55;99570.66;4951842;28;20039;-65
2023/04/12 10:16:08;;;;;;;4.25;1.48;;;;;;;22.11;41.69;99552.25;4950606;28;20027;-65
2023/04/12 10:18:36;;;;;;;7.47;1.70;;;;;;;23.34;40.34;99545.47;4951070;29;20023;-66
2023/04/12 10:21:02;;;;;;;7.55;1.10;;;;;;;24.38;39.64;99543.28;4919063;28;20040;-67
2023/04/12 10:23:30;;;;;;;7.13;1.42;;;;;;;24.45;40.38;99535.75;4951025;28;20039;-66
2023/04/12 10:25:56;;;;;;;13.85;1.45;;;;;;;25.30;39.27;99545.13;4951050;28;20028;-66
2023/04/12 10:28:21;;;;;;;8.38;1.70;;;;;;;25.59;38.85;99540.28;4951005;28;20031;-67
2023/04/12 10:30:49;;;;;;;9.52;1.60;;;;;;;25.09;39.37;99545.97;4950927;28;20031;-66
2023/04/12 10:33:16;;;;;;;6.85;1.27;;;;;;;26.17;38.05;99552.38;4952979;28;20414;-66
2023/04/12 10:35:56;;;;;;;9.38;1.45;;;;;;;26.47;37.71;99547.13;4938266;29;20495;-67
2023/04/12 10:38:26;;;;;;;4.03;1.70;;;;;;;25.95;38.60;99550.53;4955307;28;20062;-66
2023/04/12 10:41:07;;;;;;;7.93;1.63;;;;;;;25.62;38.19;99556.25;4938598;28;20039;-66
2023/04/12 10:43:33;;;;;;;5.60;1.77;;;;;;;25.28;38.87;99551.97;4953872;28;20051;-68
2023/04/12 10:46:03;;;;;;;8.60;1.08;;;;;;;24.79;39.27;99557.34;4937970;28;20031;-66
2023/04/12 10:48:51;;;;;;;7.13;1.52;;;;;;;24.25;38.94;99558.97;4938980;29;20035;-65
2023/04/12 10:51:27;;;;;;;6.15;1.58;;;;;;;23.83;39.52;99570.50;4937695;28;20043;-65
2023/04/12 10:53:53;;;;;;;9.38;1.20;;;;;;;23.45;39.15;99571.97;4953935;28;20554;-65
2023/04/12 10:56:30;;;;;;;7.72;0.98;;;;;;;23.14;39.40;99575.16;4953541;28;20127;-65
2023/04/12 10:59:00;;;;;;;12.55;1.92;;;;;;;22.93;39.30;99568.41;4953682;28;20562;-66
2023/04/12 11:01:26;;;;;;;12.05;1.55;;;;;;;22.87;38.98;99563.06;4969683;28;20130;-65
2023/04/12 11:04:18;;;;;;;5.45;1.20;;;;;;;22.82;39.03;99562.97;4953326;28;20134;-67
2023/04/12 11:06:55;;;;;;;10.33;1.33;;;;;;;22.75;38.63;99567.72;4953856;28;20023;-65
2023/04/12 11:09:29;;;;;;;15.38;1.83;;;;;;;22.74;39.19;99557.88;4954997;28;20027;-64
2023/04/12 11:12:04;;;;;;;5.88;0.98;;;;;;;22.88;39.26;99564.72;4953488;28;20046;-65
2023/04/12 11:14:42;;;;;;;16.63;1.50;;;;;;;22.95;39.14;99570.88;4954470;28;20502;-66
2023/04/12 11:17:08;;;;;;;8.35;2.03;;;;;;;23.13;38.05;99566.13;4954535;28;20040;-66
2023/04/12 11:19:43;;;;;;;10.30;1.80;;;;;;;23.16;38.39;99567.53;4954758;28;20031;-65
2023/04/12 11:22:13;;;;;;;7.70;1.98;;;;;;;23.33;38.43;99570.34;4953138;28;20388;-66
2023/04/12 11:24:40;;;;;;;10.43;2.75;;;;;;;23.54;37.92;99565.06;4937787;28;20049;-67
2023/04/12 11:27:07;;;;;;;9.95;1.40;;;;;;;23.76;37.81;99560.53;4953245;28;20126;-67
2023/04/12 11:29:33;;;;;;;7.18;1.25;;;;;;;24.01;36.83;99553.88;4937061;28;20031;-68
2023/04/12 11:32:01;;;;;;;9.48;1.60;;;;;;;24.30;37.06;99556.31;4954154;28;20057;-68